Terminal Aerodrome Forecast
Issued by NWS

Home | Current Version | Previous Version | Text Only | Print | Product List | Glossary Off
Versions: 1 2 3 4 5 6 7 8 9 10 11 12 13 14 15 16 17 18 19 20 21 22 23 24

000
FTUS45 KGGW 202320
TAFGDV
TAF
KGDV 202320Z 2100/2124 23012KT P6SM VCSH SCT110
     FM210300 21009KT P6SM BKN120
     FM210800 26006KT P6SM BKN110
     FM211900 30009KT P6SM BKN080=

USA.gov is the U.S. government's official web portal to all federal, state and local government web resources and services.